sensor_id;sensor_type;location;lat;lon;timestamp;pressure;altitude;pressure_sealevel;temperature;humidity
77011;BME280;65945;53.148;17.956;2023-01-31T00:01:30;100009.39;;;3.70;76.05
77011;BME280;65945;53.148;17.956;2023-01-31T00:03:59;100012.35;;;3.69;75.67
77011;BME280;65945;53.148;17.956;2023-01-31T00:06:31;100020.08;;;3.69;75.86
77011;BME280;65945;53.148;17.956;2023-01-31T00:08:59;100017.77;;;3.70;75.82
77011;BME280;65945;53.148;17.956;2023-01-31T00:11:27;100023.18;;;3.69;75.13
77011;BME280;65945;53.148;17.956;2023-01-31T00:13:54;100024.17;;;3.69;75.09
77011;BME280;65945;53.148;17.956;2023-01-31T00:16:23;100027.80;;;3.67;74.86
77011;BME280;65945;53.148;17.956;2023-01-31T00:18:49;100026.37;;;3.66;75.43
77011;BME280;65945;53.148;17.956;2023-01-31T00:21:18;100025.40;;;3.65;75.78
77011;BME280;65945;53.148;17.956;2023-01-31T00:23:46;100027.30;;;3.62;75.63
77011;BME280;65945;53.148;17.956;2023-01-31T00:26:17;100030.08;;;3.60;75.10
77011;BME280;65945;53.148;17.956;2023-01-31T00:28:46;100038.81;;;3.60;75.94
77011;BME280;65945;53.148;17.956;2023-01-31T00:31:14;100041.69;;;3.58;75.53
77011;BME280;65945;53.148;17.956;2023-01-31T00:33:42;100047.89;;;3.56;75.65
77011;BME280;65945;53.148;17.956;2023-01-31T00:36:13;100052.86;;;3.54;75.61
77011;BME280;65945;53.148;17.956;2023-01-31T00:38:40;100054.04;;;3.53;75.49
77011;BME280;65945;53.148;17.956;2023-01-31T00:41:10;100061.93;;;3.52;75.68
77011;BME280;65945;53.148;17.956;2023-01-31T00:43:37;100064.79;;;3.52;75.72
77011;BME280;65945;53.148;17.956;2023-01-31T00:46:04;100071.05;;;3.51;75.92
77011;BME280;65945;53.148;17.956;2023-01-31T00:48:32;100077.71;;;3.50;75.51
77011;BME280;65945;53.148;17.956;2023-01-31T00:50:59;100080.55;;;3.49;75.81
77011;BME280;65945;53.148;17.956;2023-01-31T00:53:25;100084.11;;;3.49;75.71
77011;BME280;65945;53.148;17.956;2023-01-31T00:55:55;100090.88;;;3.48;75.34
77011;BME280;65945;53.148;17.956;2023-01-31T00:58:22;100089.56;;;3.48;75.39
77011;BME280;65945;53.148;17.956;2023-01-31T01:00:49;100084.65;;;3.48;75.26
77011;BME280;65945;53.148;17.956;2023-01-31T01:03:16;100082.36;;;3.47;75.52
77011;BME280;65945;53.148;17.956;2023-01-31T01:05:43;100088.42;;;3.46;75.80
77011;BME280;65945;53.148;17.956;2023-01-31T01:08:10;100091.16;;;3.44;75.61
77011;BME280;65945;53.148;17.956;2023-01-31T01:10:38;100084.11;;;3.42;75.51
77011;BME280;65945;53.148;17.956;2023-01-31T01:13:05;100087.85;;;3.39;75.53
77011;BME280;65945;53.148;17.956;2023-01-31T01:15:32;100086.99;;;3.36;75.81
77011;BME280;65945;53.148;17.956;2023-01-31T01:18:02;100094.91;;;3.32;75.76
77011;BME280;65945;53.148;17.956;2023-01-31T01:20:28;100101.23;;;3.28;75.57
77011;BME280;65945;53.148;17.956;2023-01-31T01:22:55;100109.94;;;3.25;75.69
77011;BME280;65945;53.148;17.956;2023-01-31T01:25:22;100108.33;;;3.23;76.12
77011;BME280;65945;53.148;17.956;2023-01-31T01:27:49;100115.79;;;3.19;75.87
77011;BME280;65945;53.148;17.956;2023-01-31T01:30:16;100118.81;;;3.17;76.10
77011;BME280;65945;53.148;17.956;2023-01-31T01:32:43;100118.55;;;3.14;76.37
77011;BME280;65945;53.148;17.956;2023-01-31T01:35:10;100119.78;;;3.12;76.02
77011;BME280;65945;53.148;17.956;2023-01-31T01:37:36;100122.30;;;3.11;76.37
77011;BME280;65945;53.148;17.956;2023-01-31T01:40:03;100127.00;;;3.09;76.20
77011;BME280;65945;53.148;17.956;2023-01-31T01:42:33;100132.23;;;3.08;76.30
77011;BME280;65945;53.148;17.956;2023-01-31T01:45:03;100137.36;;;3.06;76.19
77011;BME280;65945;53.148;17.956;2023-01-31T01:47:35;100137.45;;;3.05;76.24
77011;BME280;65945;53.148;17.956;2023-01-31T01:50:16;100149.38;;;3.03;76.27
77011;BME280;65945;53.148;17.956;2023-01-31T01:53:16;100150.85;;;3.02;76.30
77011;BME280;65945;53.148;17.956;2023-01-31T01:55:48;100157.98;;;3.03;76.11
77011;BME280;65945;53.148;17.956;2023-01-31T02:00:49;100161.39;;;3.06;76.03
77011;BME280;65945;53.148;17.956;2023-01-31T02:03:17;100164.77;;;3.08;76.17
77011;BME280;65945;53.148;17.956;2023-01-31T02:05:48;100170.19;;;3.09;75.91
77011;BME280;65945;53.148;17.956;2023-01-31T02:08:18;100166.08;;;3.10;75.53
77011;BME280;65945;53.148;17.956;2023-01-31T02:10:54;100166.29;;;3.12;75.67
77011;BME280;65945;53.148;17.956;2023-01-31T02:13:23;100171.89;;;3.12;75.55
77011;BME280;65945;53.148;17.956;2023-01-31T02:15:50;100179.41;;;3.11;75.61
77011;BME280;65945;53.148;17.956;2023-01-31T02:18:18;100185.39;;;3.11;75.70
77011;BME280;65945;53.148;17.956;2023-01-31T02:37:39;100211.52;;;3.15;75.36
77011;BME280;65945;53.148;17.956;2023-01-31T02:40:36;100219.30;;;3.17;75.10
77011;BME280;65945;53.148;17.956;2023-01-31T02:51:00;100234.51;;;3.23;74.76
77011;BME280;65945;53.148;17.956;2023-01-31T02:53:33;100234.63;;;3.23;74.66
77011;BME280;65945;53.148;17.956;2023-01-31T02:56:50;100250.27;;;3.26;74.37
77011;BME280;65945;53.148;17.956;2023-01-31T02:59:06;100250.27;;;3.27;74.45
77011;BME280;65945;53.148;17.956;2023-01-31T03:01:37;100250.14;;;3.26;74.69
77011;BME280;65945;53.148;17.956;2023-01-31T03:04:07;100255.36;;;3.27;74.53
77011;BME280;65945;53.148;17.956;2023-01-31T03:09:16;100272.27;;;3.28;74.08
77011;BME280;65945;53.148;17.956;2023-01-31T03:11:58;100268.73;;;3.30;74.08
77011;BME280;65945;53.148;17.956;2023-01-31T03:20:27;100288.17;;;3.30;73.18
77011;BME280;65945;53.148;17.956;2023-01-31T03:22:58;100287.02;;;3.30;73.35
77011;BME280;65945;53.148;17.956;2023-01-31T03:25:30;100292.90;;;3.28;73.35
77011;BME280;65945;53.148;17.956;2023-01-31T03:28:03;100301.48;;;3.28;73.53
77011;BME280;65945;53.148;17.956;2023-01-31T03:30:42;100300.24;;;3.27;73.56
77011;BME280;65945;53.148;17.956;2023-01-31T03:33:26;100307.95;;;3.25;73.18
77011;BME280;65945;53.148;17.956;2023-01-31T03:38:33;100310.71;;;3.21;73.05
77011;BME280;65945;53.148;17.956;2023-01-31T03:41:10;100316.86;;;3.19;73.02
77011;BME280;65945;53.148;17.956;2023-01-31T03:44:13;100318.73;;;3.15;72.77
77011;BME280;65945;53.148;17.956;2023-01-31T03:46:43;100318.26;;;3.13;72.89
77011;BME280;65945;53.148;17.956;2023-01-31T03:49:13;100314.39;;;3.08;73.01
77011;BME280;65945;53.148;17.956;2023-01-31T03:51:45;100323.02;;;3.03;73.14
77011;BME280;65945;53.148;17.956;2023-01-31T03:54:18;100323.27;;;2.97;73.36
77011;BME280;65945;53.148;17.956;2023-01-31T03:56:59;100335.09;;;2.92;73.49
77011;BME280;65945;53.148;17.956;2023-01-31T03:59:31;100334.08;;;2.86;73.54
77011;BME280;65945;53.148;17.956;2023-01-31T04:02:00;100333.13;;;2.80;73.67
77011;BME280;65945;53.148;17.956;2023-01-31T04:04:33;100337.89;;;2.75;73.85
77011;BME280;65945;53.148;17.956;2023-01-31T04:07:02;100338.85;;;2.68;74.18
77011;BME280;65945;53.148;17.956;2023-01-31T04:09:31;100339.94;;;2.61;74.39
77011;BME280;65945;53.148;17.956;2023-01-31T04:11:59;100341.44;;;2.55;74.33
77011;BME280;65945;53.148;17.956;2023-01-31T04:14:27;100337.25;;;2.49;74.55
77011;BME280;65945;53.148;17.956;2023-01-31T04:16:54;100346.20;;;2.44;74.57
77011;BME280;65945;53.148;17.956;2023-01-31T04:19:21;100351.34;;;2.39;74.71
77011;BME280;65945;53.148;17.956;2023-01-31T04:21:47;100366.53;;;2.36;74.76
77011;BME280;65945;53.148;17.956;2023-01-31T04:24:14;100370.23;;;2.33;74.85
77011;BME280;65945;53.148;17.956;2023-01-31T04:26:41;100380.21;;;2.30;74.92
77011;BME280;65945;53.148;17.956;2023-01-31T04:29:07;100375.89;;;2.29;74.99
77011;BME280;65945;53.148;17.956;2023-01-31T04:31:34;100390.33;;;2.28;75.12
77011;BME280;65945;53.148;17.956;2023-01-31T04:34:01;100399.59;;;2.29;75.01
77011;BME280;65945;53.148;17.956;2023-01-31T04:36:27;100393.67;;;2.28;74.88
77011;BME280;65945;53.148;17.956;2023-01-31T04:38:54;100407.79;;;2.30;74.74
77011;BME280;65945;53.148;17.956;2023-01-31T04:41:21;100400.45;;;2.32;74.86
77011;BME280;65945;53.148;17.956;2023-01-31T04:43:47;100405.17;;;2.32;74.74
77011;BME280;65945;53.148;17.956;2023-01-31T04:46:14;100403.63;;;2.31;74.28
77011;BME280;65945;53.148;17.956;2023-01-31T04:48:40;100401.42;;;2.31;74.52
77011;BME280;65945;53.148;17.956;2023-01-31T04:51:07;100416.27;;;2.28;74.52
77011;BME280;65945;53.148;17.956;2023-01-31T04:53:34;100418.50;;;2.25;74.34
77011;BME280;65945;53.148;17.956;2023-01-31T04:56:01;100427.34;;;2.24;74.37
77011;BME280;65945;53.148;17.956;2023-01-31T04:58:28;100422.61;;;2.23;74.29
77011;BME280;65945;53.148;17.956;2023-01-31T05:00:55;100426.84;;;2.23;74.03
77011;BME280;65945;53.148;17.956;2023-01-31T05:03:22;100440.36;;;2.22;74.04
77011;BME280;65945;53.148;17.956;2023-01-31T05:05:49;100438.21;;;2.22;74.27
77011;BME280;65945;53.148;17.956;2023-01-31T05:08:16;100446.35;;;2.21;74.16
77011;BME280;65945;53.148;17.956;2023-01-31T05:10:43;100456.41;;;2.20;74.32
77011;BME280;65945;53.148;17.956;2023-01-31T05:13:10;100460.55;;;2.19;74.50
77011;BME280;65945;53.148;17.956;2023-01-31T05:15:38;100464.66;;;2.17;74.41
77011;BME280;65945;53.148;17.956;2023-01-31T05:18:05;100455.95;;;2.15;74.47
77011;BME280;65945;53.148;17.956;2023-01-31T05:20:37;100458.48;;;2.12;74.49
77011;BME280;65945;53.148;17.956;2023-01-31T05:23:06;100453.86;;;2.12;74.71
77011;BME280;65945;53.148;17.956;2023-01-31T05:25:34;100461.75;;;2.10;74.72
77011;BME280;65945;53.148;17.956;2023-01-31T05:28:02;100465.89;;;2.10;74.76
77011;BME280;65945;53.148;17.956;2023-01-31T05:30:29;100471.09;;;2.09;74.68
77011;BME280;65945;53.148;17.956;2023-01-31T05:32:55;100469.98;;;2.09;74.93
77011;BME280;65945;53.148;17.956;2023-01-31T05:35:22;100472.30;;;2.08;74.69
77011;BME280;65945;53.148;17.956;2023-01-31T05:37:49;100478.61;;;2.10;74.60
77011;BME280;65945;53.148;17.956;2023-01-31T05:40:16;100480.28;;;2.13;74.55
77011;BME280;65945;53.148;17.956;2023-01-31T05:42:43;100485.08;;;2.15;74.52
77011;BME280;65945;53.148;17.956;2023-01-31T05:45:10;100490.80;;;2.18;74.45
77011;BME280;65945;53.148;17.956;2023-01-31T05:47:37;100490.57;;;2.24;73.97
77011;BME280;65945;53.148;17.956;2023-01-31T05:50:04;100489.09;;;2.30;74.13
77011;BME280;65945;53.148;17.956;2023-01-31T05:52:31;100494.70;;;2.33;74.25
77011;BME280;65945;53.148;17.956;2023-01-31T05:54:57;100501.27;;;2.37;73.91
77011;BME280;65945;53.148;17.956;2023-01-31T05:57:24;100496.89;;;2.41;73.63
77011;BME280;65945;53.148;17.956;2023-01-31T05:59:50;100504.54;;;2.46;73.36
77011;BME280;65945;53.148;17.956;2023-01-31T06:02:17;100509.58;;;2.49;73.18
77011;BME280;65945;53.148;17.956;2023-01-31T06:04:43;100510.58;;;2.52;73.36
77011;BME280;65945;53.148;17.956;2023-01-31T06:07:10;100510.02;;;2.53;73.38
77011;BME280;65945;53.148;17.956;2023-01-31T06:09:36;100512.27;;;2.54;73.33
77011;BME280;65945;53.148;17.956;2023-01-31T06:12:04;100512.64;;;2.54;73.56
77011;BME280;65945;53.148;17.956;2023-01-31T06:14:31;100522.04;;;2.52;73.39
77011;BME280;65945;53.148;17.956;2023-01-31T06:16:57;100518.70;;;2.50;73.44
77011;BME280;65945;53.148;17.956;2023-01-31T06:19:24;100516.70;;;2.47;73.31
77011;BME280;65945;53.148;17.956;2023-01-31T06:21:51;100524.25;;;2.45;73.63
77011;BME280;65945;53.148;17.956;2023-01-31T06:24:17;100525.38;;;2.42;73.47
77011;BME280;65945;53.148;17.956;2023-01-31T06:26:44;100535.95;;;2.41;73.68
77011;BME280;65945;53.148;17.956;2023-01-31T06:29:11;100539.02;;;2.39;73.83
77011;BME280;65945;53.148;17.956;2023-01-31T06:31:37;100546.04;;;2.39;73.65
77011;BME280;65945;53.148;17.956;2023-01-31T06:34:04;100546.49;;;2.39;73.63
77011;BME280;65945;53.148;17.956;2023-01-31T06:36:31;100554.83;;;2.40;73.81
77011;BME280;65945;53.148;17.956;2023-01-31T06:38:59;100558.77;;;2.39;73.83
77011;BME280;65945;53.148;17.956;2023-01-31T06:41:26;100558.73;;;2.38;73.53
77011;BME280;65945;53.148;17.956;2023-01-31T06:43:52;100569.05;;;2.36;73.92
77011;BME280;65945;53.148;17.956;2023-01-31T06:46:19;100575.73;;;2.36;73.92
77011;BME280;65945;53.148;17.956;2023-01-31T06:48:46;100580.50;;;2.36;73.91
77011;BME280;65945;53.148;17.956;2023-01-31T06:51:16;100576.74;;;2.37;73.77
77011;BME280;65945;53.148;17.956;2023-01-31T06:53:42;100581.60;;;2.37;73.80
77011;BME280;65945;53.148;17.956;2023-01-31T06:56:09;100581.23;;;2.37;73.89
77011;BME280;65945;53.148;17.956;2023-01-31T06:58:35;100589.56;;;2.38;73.50
77011;BME280;65945;53.148;17.956;2023-01-31T07:01:06;100584.90;;;2.38;73.82
77011;BME280;65945;53.148;17.956;2023-01-31T07:03:33;100592.59;;;2.37;73.85
77011;BME280;65945;53.148;17.956;2023-01-31T07:06:00;100590.09;;;2.35;73.64
77011;BME280;65945;53.148;17.956;2023-01-31T07:08:27;100590.02;;;2.34;73.96
77011;BME280;65945;53.148;17.956;2023-01-31T07:10:53;100598.86;;;2.33;73.68
77011;BME280;65945;53.148;17.956;2023-01-31T07:13:20;100597.63;;;2.32;73.55
77011;BME280;65945;53.148;17.956;2023-01-31T07:15:46;100605.83;;;2.31;73.71
77011;BME280;65945;53.148;17.956;2023-01-31T07:18:13;100609.06;;;2.29;73.95
77011;BME280;65945;53.148;17.956;2023-01-31T07:20:40;100614.86;;;2.29;74.00
77011;BME280;65945;53.148;17.956;2023-01-31T07:23:07;100613.90;;;2.28;74.05
77011;BME280;65945;53.148;17.956;2023-01-31T07:25:34;100611.09;;;2.24;74.11
77011;BME280;65945;53.148;17.956;2023-01-31T07:28:02;100617.02;;;2.20;74.08
77011;BME280;65945;53.148;17.956;2023-01-31T07:30:29;100613.67;;;2.15;74.06
77011;BME280;65945;53.148;17.956;2023-01-31T07:32:56;100611.64;;;2.11;74.20
77011;BME280;65945;53.148;17.956;2023-01-31T07:35:22;100613.86;;;2.06;74.56
77011;BME280;65945;53.148;17.956;2023-01-31T07:37:52;100616.46;;;2.03;74.72
77011;BME280;65945;53.148;17.956;2023-01-31T07:40:18;100617.02;;;1.99;74.79
77011;BME280;65945;53.148;17.956;2023-01-31T07:42:45;100619.23;;;1.97;74.65
77011;BME280;65945;53.148;17.956;2023-01-31T07:45:13;100616.82;;;1.95;74.90
77011;BME280;65945;53.148;17.956;2023-01-31T07:47:40;100622.46;;;1.95;74.86
77011;BME280;65945;53.148;17.956;2023-01-31T07:50:09;100624.14;;;1.93;74.82
77011;BME280;65945;53.148;17.956;2023-01-31T07:52:35;100629.30;;;1.92;75.00
77011;BME280;65945;53.148;17.956;2023-01-31T07:55:02;100631.90;;;1.93;75.08
77011;BME280;65945;53.148;17.956;2023-01-31T07:57:32;100635.58;;;1.97;75.04
77011;BME280;65945;53.148;17.956;2023-01-31T07:59:58;100638.30;;;2.00;74.89
77011;BME280;65945;53.148;17.956;2023-01-31T08:02:25;100646.86;;;2.05;74.71
77011;BME280;65945;53.148;17.956;2023-01-31T08:05:10;100644.72;;;2.09;74.56
77011;BME280;65945;53.148;17.956;2023-01-31T08:07:37;100645.89;;;2.11;74.41
77011;BME280;65945;53.148;17.956;2023-01-31T08:10:04;100649.40;;;2.15;74.17
77011;BME280;65945;53.148;17.956;2023-01-31T08:12:30;100650.09;;;2.20;73.97
77011;BME280;65945;53.148;17.956;2023-01-31T08:14:57;100654.70;;;2.28;73.88
77011;BME280;65945;53.148;17.956;2023-01-31T08:17:24;100664.02;;;2.34;73.51
77011;BME280;65945;53.148;17.956;2023-01-31T08:19:50;100661.75;;;2.42;73.56
77011;BME280;65945;53.148;17.956;2023-01-31T08:22:17;100669.52;;;2.52;73.18
77011;BME280;65945;53.148;17.956;2023-01-31T08:24:43;100673.81;;;2.61;72.83
77011;BME280;65945;53.148;17.956;2023-01-31T08:27:10;100676.45;;;2.71;72.59
77011;BME280;65945;53.148;17.956;2023-01-31T08:29:37;100683.73;;;2.81;72.29
77011;BME280;65945;53.148;17.956;2023-01-31T08:32:03;100679.95;;;2.89;71.73
77011;BME280;65945;53.148;17.956;2023-01-31T08:34:30;100684.35;;;2.94;71.43
77011;BME280;65945;53.148;17.956;2023-01-31T08:36:56;100687.00;;;2.93;70.92
77011;BME280;65945;53.148;17.956;2023-01-31T08:39:23;100688.31;;;2.96;71.16
77011;BME280;65945;53.148;17.956;2023-01-31T08:41:49;100684.88;;;2.98;71.38
77011;BME280;65945;53.148;17.956;2023-01-31T08:44:17;100689.99;;;3.03;71.28
77011;BME280;65945;53.148;17.956;2023-01-31T08:46:43;100691.02;;;3.08;70.71
77011;BME280;65945;53.148;17.956;2023-01-31T08:49:11;100692.80;;;3.12;70.37
77011;BME280;65945;53.148;17.956;2023-01-31T08:51:38;100692.09;;;3.17;70.83
77011;BME280;65945;53.148;17.956;2023-01-31T08:54:04;100692.16;;;3.22;69.42
77011;BME280;65945;53.148;17.956;2023-01-31T08:56:31;100694.48;;;3.23;69.76
77011;BME280;65945;53.148;17.956;2023-01-31T08:58:58;100699.04;;;3.27;69.99
77011;BME280;65945;53.148;17.956;2023-01-31T09:01:24;100693.95;;;3.33;69.38
77011;BME280;65945;53.148;17.956;2023-01-31T09:03:51;100691.11;;;3.37;69.09
77011;BME280;65945;53.148;17.956;2023-01-31T09:06:25;100695.81;;;3.42;68.64
77011;BME280;65945;53.148;17.956;2023-01-31T09:08:54;100695.40;;;3.45;68.60
77011;BME280;65945;53.148;17.956;2023-01-31T09:11:21;100694.33;;;3.51;68.47
77011;BME280;65945;53.148;17.956;2023-01-31T09:13:48;100695.15;;;3.56;68.60
77011;BME280;65945;53.148;17.956;2023-01-31T09:16:18;100697.73;;;3.54;68.30
77011;BME280;65945;53.148;17.956;2023-01-31T09:18:44;100704.54;;;3.50;68.14
77011;BME280;65945;53.148;17.956;2023-01-31T09:21:14;100702.55;;;3.43;67.53
77011;BME280;65945;53.148;17.956;2023-01-31T09:23:41;100706.55;;;3.43;67.75
77011;BME280;65945;53.148;17.956;2023-01-31T09:26:09;100709.49;;;3.49;68.52
77011;BME280;65945;53.148;17.956;2023-01-31T09:28:36;100702.62;;;3.55;68.07
77011;BME280;65945;53.148;17.956;2023-01-31T09:31:06;100709.86;;;3.59;67.80
77011;BME280;65945;53.148;17.956;2023-01-31T09:33:34;100709.71;;;3.61;67.70
77011;BME280;65945;53.148;17.956;2023-01-31T09:36:07;100708.34;;;3.61;67.52
77011;BME280;65945;53.148;17.956;2023-01-31T09:38:34;100712.08;;;3.64;67.33
77011;BME280;65945;53.148;17.956;2023-01-31T09:41:04;100710.14;;;3.68;67.07
77011;BME280;65945;53.148;17.956;2023-01-31T09:43:40;100712.09;;;3.72;67.14
77011;BME280;65945;53.148;17.956;2023-01-31T09:46:14;100711.66;;;3.80;66.57
77011;BME280;65945;53.148;17.956;2023-01-31T09:48:45;100709.91;;;3.89;66.11
77011;BME280;65945;53.148;17.956;2023-01-31T09:51:15;100713.73;;;3.94;65.70
77011;BME280;65945;53.148;17.956;2023-01-31T09:53:42;100718.08;;;3.98;66.10
77011;BME280;65945;53.148;17.956;2023-01-31T09:56:29;100729.36;;;4.02;65.70
77011;BME280;65945;53.148;17.956;2023-01-31T10:05:28;100715.96;;;3.94;65.22
77011;BME280;65945;53.148;17.956;2023-01-31T10:08:18;100716.25;;;3.93;65.38
77011;BME280;65945;53.148;17.956;2023-01-31T10:10:51;100723.82;;;3.93;65.04
77011;BME280;65945;53.148;17.956;2023-01-31T10:13:24;100726.17;;;3.92;64.77
77011;BME280;65945;53.148;17.956;2023-01-31T10:16:08;100716.84;;;3.93;65.19
77011;BME280;65945;53.148;17.956;2023-01-31T10:18:44;100718.91;;;3.92;64.45
77011;BME280;65945;53.148;17.956;2023-01-31T10:21:24;100720.02;;;3.89;63.87
77011;BME280;65945;53.148;17.956;2023-01-31T10:24:02;100721.38;;;3.85;64.38
77011;BME280;65945;53.148;17.956;2023-01-31T10:26:33;100723.04;;;3.83;63.78
77011;BME280;65945;53.148;17.956;2023-01-31T10:29:25;100719.13;;;3.83;64.32
77011;BME280;65945;53.148;17.956;2023-01-31T10:31:57;100712.77;;;3.83;63.57
77011;BME280;65945;53.148;17.956;2023-01-31T10:34:29;100719.92;;;3.82;63.87
77011;BME280;65945;53.148;17.956;2023-01-31T10:37:11;100715.19;;;3.83;64.07
77011;BME280;65945;53.148;17.956;2023-01-31T10:40:03;100707.70;;;3.84;64.53
77011;BME280;65945;53.148;17.956;2023-01-31T10:42:34;100706.90;;;3.85;64.42
77011;BME280;65945;53.148;17.956;2023-01-31T10:55:58;100680.59;;;3.97;63.15
77011;BME280;65945;53.148;17.956;2023-01-31T10:58:29;100693.91;;;3.97;63.12
77011;BME280;65945;53.148;17.956;2023-01-31T11:00:56;100691.10;;;3.96;63.10
77011;BME280;65945;53.148;17.956;2023-01-31T11:03:23;100689.23;;;3.93;63.49
77011;BME280;65945;53.148;17.956;2023-01-31T11:05:55;100693.16;;;3.90;62.52
77011;BME280;65945;53.148;17.956;2023-01-31T11:08:35;100698.16;;;3.87;62.46
77011;BME280;65945;53.148;17.956;2023-01-31T11:11:19;100696.11;;;3.82;62.00
77011;BME280;65945;53.148;17.956;2023-01-31T11:16:27;100690.41;;;3.82;63.74
77011;BME280;65945;53.148;17.956;2023-01-31T11:18:58;100685.15;;;3.82;62.79
77011;BME280;65945;53.148;17.956;2023-01-31T11:21:33;100698.38;;;3.82;62.72
77011;BME280;65945;53.148;17.956;2023-01-31T11:24:03;100700.02;;;3.82;61.92
77011;BME280;65945;53.148;17.956;2023-01-31T11:26:34;100683.19;;;3.82;62.02
77011;BME280;65945;53.148;17.956;2023-01-31T11:29:14;100680.77;;;3.84;62.72
77011;BME280;65945;53.148;17.956;2023-01-31T11:31:43;100677.55;;;3.86;62.76
77011;BME280;65945;53.148;17.956;2023-01-31T11:34:29;100668.38;;;3.87;62.56
77011;BME280;65945;53.148;17.956;2023-01-31T11:37:03;100674.85;;;3.88;63.54
77011;BME280;65945;53.148;17.956;2023-01-31T11:39:33;100681.05;;;3.89;63.66
77011;BME280;65945;53.148;17.956;2023-01-31T11:42:12;100674.11;;;3.91;63.47
77011;BME280;65945;53.148;17.956;2023-01-31T11:45:01;100676.46;;;3.93;63.83
77011;BME280;65945;53.148;17.956;2023-01-31T11:47:38;100672.79;;;3.95;64.15
77011;BME280;65945;53.148;17.956;2023-01-31T11:50:10;100669.39;;;3.98;64.28
77011;BME280;65945;53.148;17.956;2023-01-31T11:52:44;100665.57;;;4.04;64.54
77011;BME280;65945;53.148;17.956;2023-01-31T11:55:15;100659.58;;;4.08;63.45
77011;BME280;65945;53.148;17.956;2023-01-31T11:57:43;100647.94;;;4.08;63.29
77011;BME280;65945;53.148;17.956;2023-01-31T12:00:22;100645.20;;;4.10;63.74
77011;BME280;65945;53.148;17.956;2023-01-31T12:02:58;100634.48;;;4.11;63.53
77011;BME280;65945;53.148;17.956;2023-01-31T12:08:01;100634.16;;;4.14;63.71
77011;BME280;65945;53.148;17.956;2023-01-31T12:10:45;100623.29;;;4.15;64.25
77011;BME280;65945;53.148;17.956;2023-01-31T12:13:18;100619.88;;;4.18;64.76
77011;BME280;65945;53.148;17.956;2023-01-31T12:16:05;100619.00;;;4.20;64.65
77011;BME280;65945;53.148;17.956;2023-01-31T12:18:46;100606.80;;;4.19;64.30
77011;BME280;65945;53.148;17.956;2023-01-31T12:21:39;100609.49;;;4.16;64.83
77011;BME280;65945;53.148;17.956;2023-01-31T12:24:21;100609.73;;;4.11;64.80
77011;BME280;65945;53.148;17.956;2023-01-31T12:27:10;100600.85;;;4.06;64.80
77011;BME280;65945;53.148;17.956;2023-01-31T12:30:06;100603.59;;;3.98;65.24
77011;BME280;65945;53.148;17.956;2023-01-31T12:35:56;100590.38;;;3.90;66.12
77011;BME280;65945;53.148;17.956;2023-01-31T12:38:57;100584.33;;;3.89;66.00
77011;BME280;65945;53.148;17.956;2023-01-31T12:44:41;100574.30;;;3.96;67.00
77011;BME280;65945;53.148;17.956;2023-01-31T12:47:34;100569.64;;;3.99;66.45
77011;BME280;65945;53.148;17.956;2023-01-31T12:50:31;100577.02;;;4.00;66.70
77011;BME280;65945;53.148;17.956;2023-01-31T12:53:30;100576.42;;;4.01;66.51
77011;BME280;65945;53.148;17.956;2023-01-31T13:02:01;100571.90;;;3.88;67.02
77011;BME280;65945;53.148;17.956;2023-01-31T13:04:55;100564.77;;;3.86;66.99
77011;BME280;65945;53.148;17.956;2023-01-31T13:07:29;100559.09;;;3.81;67.19
77011;BME280;65945;53.148;17.956;2023-01-31T13:10:00;100555.68;;;3.76;67.48
77011;BME280;65945;53.148;17.956;2023-01-31T13:12:31;100550.12;;;3.71;67.49
77011;BME280;65945;53.148;17.956;2023-01-31T13:15:15;100550.33;;;3.69;67.99
77011;BME280;65945;53.148;17.956;2023-01-31T13:17:47;100539.80;;;3.69;67.93
77011;BME280;65945;53.148;17.956;2023-01-31T13:20:43;100539.02;;;3.72;67.86
77011;BME280;65945;53.148;17.956;2023-01-31T13:23:21;100538.34;;;3.77;68.13
77011;BME280;65945;53.148;17.956;2023-01-31T13:25:53;100528.18;;;3.81;67.92
77011;BME280;65945;53.148;17.956;2023-01-31T13:28:27;100527.41;;;3.86;67.95
77011;BME280;65945;53.148;17.956;2023-01-31T13:31:01;100518.08;;;3.94;68.14
77011;BME280;65945;53.148;17.956;2023-01-31T13:33:45;100516.65;;;4.03;68.04
77011;BME280;65945;53.148;17.956;2023-01-31T13:38:48;100509.54;;;4.21;67.63
77011;BME280;65945;53.148;17.956;2023-01-31T13:41:27;100498.67;;;4.27;67.55
77011;BME280;65945;53.148;17.956;2023-01-31T13:43:56;100497.16;;;4.29;67.32
77011;BME280;65945;53.148;17.956;2023-01-31T13:46:32;100492.35;;;4.31;67.42
77011;BME280;65945;53.148;17.956;2023-01-31T13:49:08;100488.80;;;4.29;67.01
77011;BME280;65945;53.148;17.956;2023-01-31T13:51:43;100484.88;;;4.28;67.17
77011;BME280;65945;53.148;17.956;2023-01-31T13:56:56;100482.30;;;4.27;67.25
77011;BME280;65945;53.148;17.956;2023-01-31T13:59:26;100477.77;;;4.25;67.29
77011;BME280;65945;53.148;17.956;2023-01-31T14:01:55;100474.49;;;4.21;67.61
77011;BME280;65945;53.148;17.956;2023-01-31T14:04:32;100468.39;;;4.16;67.68
77011;BME280;65945;53.148;17.956;2023-01-31T14:09:33;100458.88;;;4.07;68.08
77011;BME280;65945;53.148;17.956;2023-01-31T14:14:54;100451.29;;;3.94;68.43
77011;BME280;65945;53.148;17.956;2023-01-31T14:22:25;100446.34;;;3.79;68.93
77011;BME280;65945;53.148;17.956;2023-01-31T14:24:55;100444.54;;;3.77;69.33
77011;BME280;65945;53.148;17.956;2023-01-31T14:27:25;100439.53;;;3.77;69.25
77011;BME280;65945;53.148;17.956;2023-01-31T14:35:19;100441.96;;;3.77;69.44
77011;BME280;65945;53.148;17.956;2023-01-31T14:41:54;100434.98;;;3.77;69.80
77011;BME280;65945;53.148;17.956;2023-01-31T14:47:15;100436.72;;;3.75;70.45
77011;BME280;65945;53.148;17.956;2023-01-31T14:55:42;100428.30;;;3.81;70.92
77011;BME280;65945;53.148;17.956;2023-01-31T14:58:22;100420.09;;;3.83;71.00